Cap San Sounio — 9V2240 — position and weather

sailwx.info

Track history (hours):
 
Tides and Currents Weather Stations Pressure Air Temp Water Temp Dewpoint Dewpoint Depression Visibility Wind Speed Wind Dir Waves Ship Positions

Cap San Sounio

Last reported at 2018-Apr-13 15:32 UTC. Time now 2018-Apr-19 17:33 UTC.
Position N 36°58' W 028°12'.

Length 333 m; draft 13.1 m.

Type: Cargo ship. MMSI: 564716000.

Date/timePositionNaut miles runAvg speedWind from/ knotsBaromVisibWave heightAir tempDewpointWater temp
2018-Apr-13 15:32N 36°58' W 028°12'015.7
2018-Apr-13 15:30N 36°58' W 028°11'1717.5
2018-Apr-13 14:33N 37°11' W 027°57'118.5
2018-Apr-13 14:30N 37°11' W 027°57'1717.4
2018-Apr-13 13:30N 37°24' W 027°42'918.0
2018-Apr-13 13:00N 37°31' W 027°34'918.0
2018-Apr-13 12:30N 37°38' W 027°27'917.9
2018-Apr-13 12:00N 37°44' W 027°19'917.5
2018-Apr-13 11:30N 37°51' W 027°12'917.7
2018-Apr-13 11:00N 37°57' W 027°04'1818.0
2018-Apr-13 10:00N 38°10' W 026°48'918.1
2018-Apr-13 09:30N 38°16' W 026°39'1617.8
2018-Apr-13 08:35N 38°26' W 026°22'317.0
2018-Apr-13 08:25N 38°27' W 026°20'2216.7
2018-Apr-13 07:05N 38°40' W 025°56'416.2
2018-Apr-13 06:51N 38°43' W 025°52'616.2
2018-Apr-13 06:27N 38°46' W 025°46'1516.8
2018-Apr-13 05:35N 38°55' W 025°30'216.8
2018-Apr-13 05:28N 38°56' W 025°29'  
2018-Apr-10 02:55N 49°42' W 004°09'711.6
2018-Apr-10 02:19N 49°45' W 003°58'411.6
2018-Apr-10 01:57N 49°46' W 003°52'511.5
2018-Apr-10 01:30N 49°48' W 003°45'611.6
2018-Apr-10 01:00N 49°50' W 003°36'711.7
2018-Apr-10 00:24N 49°52' W 003°26'511.8
2018-Apr-10 00:00N 49°54' W 003°19'611.8
2018-Apr-09 23:30N 49°56' W 003°11'612.0
2018-Apr-09 23:00N 49°58' W 003°02'612.2
2018-Apr-09 22:30N 49°60' W 002°53'612.5
2018-Apr-09 22:00N 50°02' W 002°43'612.8
2018-Apr-09 21:30N 50°03' W 002°34'713.1
2018-Apr-09 20:59N 50°05' W 002°24'713.4
2018-Apr-09 20:29N 50°07' W 002°14'713.6
2018-Apr-09 20:00N 50°08' W 002°04'713.4
2018-Apr-09 19:30N 50°10' W 001°54'713.3
2018-Apr-09 19:00N 50°12' W 001°44'713.1
2018-Apr-09 18:30N 50°14' W 001°34'612.7
2018-Apr-09 18:00N 50°15' W 001°24'611.1
2018-Apr-09 17:30N 50°18' W 001°16'611.9
2018-Apr-09 17:00N 50°18' W 001°07'611.9
2018-Apr-09 16:30N 50°20' W 000°58'611.6
2018-Apr-09 16:00N 50°22' W 000°49'611.5
2018-Apr-09 15:28N 50°23' W 000°40'511.3
2018-Apr-09 15:00N 50°24' W 000°32'611.4
2018-Apr-09 14:30N 50°26' W 000°23'611.6
2018-Apr-09 14:00N 50°27' W 000°14'611.8
2018-Apr-09 13:30N 50°29' W 000°06'612.0
2018-Apr-09 13:00N 50°31' E 000°03'612.3
2018-Apr-09 12:30N 50°32' E 000°13'612.6
2018-Apr-09 12:00N 50°34' E 000°22'613.0
2018-Apr-09 11:30N 50°36' E 000°32'713.1
2018-Apr-09 11:00N 50°39' E 000°41'713.3
2018-Apr-09 10:30N 50°42' E 000°50'713.3
2018-Apr-09 10:01N 50°46' E 000°59'713.1
2018-Apr-09 09:30N 50°49' E 001°08'712.9
2018-Apr-09 08:59N 50°53' E 001°16'612.7
2018-Apr-09 08:30N 50°58' E 001°22'612.1
2018-Apr-09 08:00N 51°03' E 001°28'510.8
2018-Apr-09 07:30N 51°07' E 001°34'510.5
2018-Apr-09 07:00N 51°10' E 001°41'611.2
2018-Apr-09 06:30N 51°14' E 001°46'611.3
2018-Apr-09 06:00N 51°19' E 001°51'611.4
2018-Apr-09 05:30N 51°24' E 001°56'511.0
2018-Apr-09 05:00N 51°24' E 002°04'611.8
2018-Apr-09 04:30N 51°22' E 002°13'611.0
2018-Apr-09 04:00N 51°21' E 002°21'612.3
2018-Apr-09 03:30N 51°23' E 002°31'612.6
2018-Apr-09 03:00N 51°23' E 002°41'612.4
2018-Apr-09 02:31N 51°25' E 002°50'815.8
2018-Apr-09 02:00N 51°25' E 003°03'815.6
2018-Apr-09 01:31N 51°25' E 003°15'815.8
2018-Apr-09 01:00N 51°25' E 003°28'611.8
2018-Apr-09 00:30N 51°26' E 003°37'612.9
2018-Apr-09 00:00N 51°22' E 003°45'714.1
2018-Apr-08 23:30N 51°23' E 003°56'4 7.6
2018-Apr-08 23:00N 51°24' E 004°02'611.4
2018-Apr-08 22:30N 51°24' E 004°11'510.0
2018-Apr-08 22:01N 51°20' E 004°16'3 5.0
2018-Apr-08 21:30N 51°18' E 004°16'0 0.0
2018-Apr-08 21:00N 51°18' E 004°16'0 0.0
2018-Apr-08 20:30N 51°18' E 004°16'0 0.0
2018-Apr-08 20:00N 51°18' E 004°16'0 0.0
2018-Apr-08 19:30N 51°18' E 004°16'0 0.0
2018-Apr-08 19:00N 51°18' E 004°16'0 0.0
2018-Apr-08 18:27N 51°18' E 004°16'0 0.0
2018-Apr-08 18:00N 51°17' E 004°16'0 0.0
2018-Apr-08 17:30N 51°18' E 004°16'0 0.0
2018-Apr-08 16:57N 51°18' E 004°16'0 0.0
2018-Apr-08 16:30N 51°18' E 004°16'0 0.0
2018-Apr-08 16:00N 51°18' E 004°16'0 0.0
2018-Apr-08 15:30N 51°18' E 004°16'0 0.0
2018-Apr-08 15:00N 51°18' E 004°16'0 0.0
2018-Apr-08 14:30N 51°18' E 004°16'0 0.0
2018-Apr-08 14:00N 51°18' E 004°16'0 0.0
2018-Apr-08 13:30N 51°18' E 004°16'0 0.0
2018-Apr-08 13:00N 51°18' E 004°16'0 0.0
2018-Apr-08 12:30N 51°18' E 004°16'0 0.0
2018-Apr-08 11:54N 51°18' E 004°16'0 0.0
2018-Apr-08 11:30N 51°18' E 004°16'0 0.0
2018-Apr-08 11:00N 51°18' E 004°16'0 0.0
2018-Apr-08 10:30N 51°18' E 004°16'0 0.0
2018-Apr-08 10:00N 51°18' E 004°16'0 0.0
2018-Apr-08 09:30N 51°18' E 004°16'0 0.0
2018-Apr-08 09:00N 51°17' E 004°16'0 0.0
2018-Apr-08 08:30N 51°18' E 004°16'0 0.0
2018-Apr-08 08:00N 51°18' E 004°16'0 0.0
2018-Apr-08 07:30N 51°18' E 004°16'0 0.0
2018-Apr-08 07:00N 51°18' E 004°16'0 0.0
2018-Apr-08 06:30N 51°18' E 004°16'0 0.0
2018-Apr-08 06:00N 51°18' E 004°16'0 0.0
2018-Apr-08 05:30N 51°18' E 004°16'0 0.0
2018-Apr-08 05:00N 51°18' E 004°16'0 0.0
2018-Apr-08 04:30N 51°18' E 004°16'0 0.0
2018-Apr-08 03:57N 51°18' E 004°16'0 0.0
2018-Apr-08 03:30N 51°18' E 004°16'0 0.0
2018-Apr-08 02:57N 51°18' E 004°16'0 0.0
2018-Apr-08 02:27N 51°18' E 004°16'0 0.0
2018-Apr-08 01:57N 51°18' E 004°16'0 0.0
2018-Apr-08 01:30N 51°18' E 004°16'0 0.0
2018-Apr-08 01:00N 51°18' E 004°16'0 0.0
2018-Apr-08 00:30N 51°18' E 004°16'0 0.0
2018-Apr-08 00:00N 51°18' E 004°16'0 0.0
2018-Apr-07 23:30N 51°18' E 004°16'0 0.0
2018-Apr-07 23:00N 51°18' E 004°16'0 0.0
2018-Apr-07 22:27N 51°18' E 004°16'0 0.0
2018-Apr-07 22:00N 51°18' E 004°16'0 0.0
2018-Apr-07 21:30N 51°18' E 004°16'0 0.0
2018-Apr-07 20:57N 51°17' E 004°16'0 0.0
2018-Apr-07 20:27N 51°18' E 004°16'0 0.0
2018-Apr-07 19:57N 51°18' E 004°16'0 0.0
2018-Apr-07 19:30N 51°18' E 004°16'0 0.0
2018-Apr-07 19:00N 51°18' E 004°16'0 0.0
2018-Apr-07 18:27N 51°18' E 004°16'0 0.0
2018-Apr-07 18:00N 51°18' E 004°16'0 0.0
2018-Apr-07 17:30N 51°18' E 004°16'0 0.0
2018-Apr-07 16:57N 51°18' E 004°16'0 0.0
2018-Apr-07 16:27N 51°18' E 004°16'0 0.0
2018-Apr-07 15:57N 51°18' E 004°16'0 0.3
2018-Apr-07 15:30N 51°18' E 004°16'1 1.7
2018-Apr-07 15:01N 51°18' E 004°16'4 7.6
2018-Apr-07 14:30N 51°22' E 004°13'510.1
2018-Apr-07 14:00N 51°22' E 004°05'611.0
2018-Apr-07 13:30N 51°25' E 003°58'714.5
2018-Apr-07 13:00N 51°21' E 003°50'612.9
2018-Apr-07 12:31N 51°25' E 003°42'510.8
2018-Apr-07 12:00N 51°25' E 003°33'714.1
2018-Apr-07 11:31N 51°24' E 003°22'815.0
2018-Apr-07 11:00N 51°24' E 003°10'714.7
2018-Apr-07 10:30N 51°25' E 002°59'816.4
2018-Apr-07 10:00N 51°32' E 003°06'816.4
2018-Apr-07 09:30N 51°40' E 003°11'714.4
2018-Apr-07 09:00N 51°47' E 003°15'713.5
2018-Apr-07 08:29N 51°53' E 003°17'816.8
2018-Apr-07 08:00N 52°01' E 003°20'917.2
2018-Apr-07 07:30N 52°10' E 003°22'917.0
2018-Apr-07 07:00N 52°18' E 003°26'816.9
2018-Apr-07 06:30N 52°27' E 003°27'816.6
2018-Apr-07 06:00N 52°35' E 003°30'816.6
2018-Apr-07 05:30N 52°42' E 003°36'917.4
2018-Apr-07 05:00N 52°49' E 003°45'918.0
2018-Apr-07 04:29N 52°56' E 003°56'918.7
2018-Apr-07 04:00N 53°01' E 004°07'918.8
2018-Apr-07 03:30N 53°07' E 004°20'918.5
2018-Apr-07 03:00N 53°15' E 004°28'918.7
2018-Apr-07 02:30N 53°24' E 004°34'917.8
2018-Apr-07 02:00N 53°30' E 004°44'918.4
2018-Apr-07 01:30N 53°34' E 004°58'917.8
2018-Apr-07 01:00N 53°37' E 005°12'918.4
2018-Apr-07 00:30N 53°40' E 005°27'918.4
2018-Apr-07 00:00N 53°43' E 005°42'2618.3
2018-Apr-06 22:35N 53°50' E 006°24'5519.4
2018-Apr-06 19:45N 54°01' E 007°56'519.5
2018-Apr-06 19:28N 54°01' E 008°05'714.5
2018-Apr-06 19:00N 54°00' E 008°16'1019.4
2018-Apr-06 18:30N 53°58' E 008°32'816.5
2018-Apr-06 18:01N 53°53' E 008°43'612.3
2018-Apr-06 17:31N 53°50' E 008°52'713.8
2018-Apr-06 17:00N 53°52' E 009°04'611.8
2018-Apr-06 16:30N 53°53' E 009°14'612.1
2018-Apr-06 16:00N 53°49' E 009°22'510.9
2018-Apr-06 15:30N 53°44' E 009°26'5 9.9
2018-Apr-06 15:00N 53°40' E 009°31'5 9.7
2018-Apr-06 14:31N 53°36' E 009°35'510.2
2018-Apr-06 14:00N 53°34' E 009°43'5 9.8
2018-Apr-06 13:30N 53°33' E 009°51'3 6.8
2018-Apr-06 13:00N 53°32' E 009°56'1 2.5
2018-Apr-06 12:30N 53°30' E 009°56'0 0.0
2018-Apr-06 11:58N 53°30' E 009°56'0 0.0
2018-Apr-06 11:28N 53°30' E 009°56'0 0.0
2018-Apr-06 10:58N 53°30' E 009°56'0 0.0
2018-Apr-06 10:30N 53°30' E 009°56'0 0.0
2018-Apr-06 09:58N 53°30' E 009°56'0 0.0
2018-Apr-06 09:26N 53°30' E 009°56'0 0.0
2018-Apr-06 08:58N 53°30' E 009°56'0 0.0
2018-Apr-06 08:28N 53°30' E 009°56'0 0.0
2018-Apr-06 07:59N 53°30' E 009°56'0 0.0
2018-Apr-06 07:28N 53°30' E 009°56'0 0.0
2018-Apr-06 06:58N 53°30' E 009°56'0 0.0
2018-Apr-06 06:28N 53°30' E 009°56'0 0.1
2018-Apr-06 05:58N 53°30' E 009°56'0 0.0
2018-Apr-06 05:28N 53°30' E 009°56'0 0.0
2018-Apr-06 04:58N 53°30' E 009°56'0 0.0
2018-Apr-06 04:28N 53°30' E 009°56'0 0.0
2018-Apr-06 03:58N 53°30' E 009°56'0 0.0
2018-Apr-06 03:28N 53°30' E 009°56'0 0.0
2018-Apr-06 02:58N 53°30' E 009°56'0 0.0
2018-Apr-06 02:28N 53°30' E 009°56'0 0.0
2018-Apr-06 01:58N 53°30' E 009°56'0 0.0
2018-Apr-06 01:28N 53°30' E 009°56'0 0.0
2018-Apr-06 00:58N 53°30' E 009°56'0 0.0
2018-Apr-06 00:28N 53°30' E 009°56'0 0.0
2018-Apr-05 23:58N 53°30' E 009°56'0 0.0
2018-Apr-05 23:28N 53°30' E 009°56'0 0.0
2018-Apr-05 22:58N 53°30' E 009°56'0 0.0
2018-Apr-05 22:28N 53°30' E 009°56'0 0.0
2018-Apr-05 21:58N 53°30' E 009°56'0 0.0
2018-Apr-05 21:28N 53°30' E 009°56'0 0.0
2018-Apr-05 20:58N 53°30' E 009°56'0 0.0
2018-Apr-05 20:28N 53°30' E 009°56'0 0.0
2018-Apr-05 19:58N 53°30' E 009°56'0 0.0
2018-Apr-05 19:28N 53°30' E 009°56'0 0.0
2018-Apr-05 18:58N 53°30' E 009°56'0 0.0
2018-Apr-05 18:28N 53°30' E 009°56'0 0.0
2018-Apr-05 17:58N 53°30' E 009°56'0 0.0
2018-Apr-05 17:28N 53°30' E 009°56'0 0.0
2018-Apr-05 16:58N 53°30' E 009°56'0 0.0
2018-Apr-05 16:28N 53°30' E 009°56'0 0.0
2018-Apr-05 15:58N 53°30' E 009°56'0 0.0
2018-Apr-05 15:28N 53°30' E 009°56'0 0.0
2018-Apr-05 15:00N 53°30' E 009°56'0 0.0
2018-Apr-05 14:28N 53°30' E 009°56'0 0.0
2018-Apr-05 13:58N 53°30' E 009°56'0 0.0
2018-Apr-05 13:28N 53°30' E 009°56'0 0.0
2018-Apr-05 12:58N 53°30' E 009°56'0 0.0
2018-Apr-05 12:30N 53°30' E 009°56'1 1.0
2018-Apr-05 12:00N 53°31' E 009°56'3 5.1
2018-Apr-05 11:30N 53°33' E 009°53'4 7.4
2018-Apr-05 11:00N 53°33' E 009°47'4 8.6
2018-Apr-05 10:30N 53°34' E 009°40'510.4
2018-Apr-05 10:00N 53°37' E 009°33'4 8.8
2018-Apr-05 09:30N 53°41' E 009°30'510.7
2018-Apr-05 09:00N 53°45' E 009°24'511.0
2018-Apr-05 08:30N 53°50' E 009°20'611.4
2018-Apr-05 08:00N 53°53' E 009°11'4 8.5
2018-Apr-05 07:30N 53°52' E 009°04'612.2
2018-Apr-05 07:00N 53°51' E 008°54'611.0
2018-Apr-05 06:30N 53°51' E 008°45'510.7
2018-Apr-05 06:00N 53°56' E 008°40'510.7
2018-Apr-05 05:30N 53°58' E 008°32'714.2
2018-Apr-05 05:00N 53°59' E 008°20'815.6
2018-Apr-05 04:30N 53°59' E 008°07'815.6
2018-Apr-05 04:00N 53°58' E 007°53'611.7
2018-Apr-05 03:30N 53°57' E 007°44'612.6
2018-Apr-05 03:00N 53°55' E 007°33'612.1
2018-Apr-05 02:30N 53°54' E 007°23'611.8
2018-Apr-05 02:00N 53°53' E 007°14'611.9
2018-Apr-05 01:29N 53°51' E 007°03'1911.6
2018-Apr-04 23:53N 53°47' E 006°33'511.4
2018-Apr-04 23:28N 53°46' E 006°25'611.6
2018-Apr-04 22:56N 53°44' E 006°15'1411.6
2018-Apr-04 21:43N 53°39' E 005°53'511.6
2018-Apr-04 21:17N 53°37' E 005°45'511.6
2018-Apr-04 20:50N 53°36' E 005°37'411.7
2018-Apr-04 20:30N 53°34' E 005°30'611.7
2018-Apr-04 20:00N 53°32' E 005°21'611.8
2018-Apr-04 19:30N 53°30' E 005°12'611.9
2018-Apr-04 19:00N 53°28' E 005°02'611.7
2018-Apr-04 18:30N 53°27' E 004°53'611.6
2018-Apr-04 18:00N 53°24' E 004°44'611.9
2018-Apr-04 17:30N 53°19' E 004°38'612.0
2018-Apr-04 17:00N 53°14' E 004°33'612.2
2018-Apr-04 16:30N 53°09' E 004°29'612.2
2018-Apr-04 16:00N 53°03' E 004°24'612.2
2018-Apr-04 15:30N 52°58' E 004°19'612.5
2018-Apr-04 15:00N 52°52' E 004°15'612.2
2018-Apr-04 14:30N 52°47' E 004°09'612.2
2018-Apr-04 14:00N 52°42' E 004°04'611.9
2018-Apr-04 13:30N 52°37' E 003°58'612.0
2018-Apr-04 13:00N 52°33' E 003°51'612.0
2018-Apr-04 12:30N 52°29' E 003°44'611.9
2018-Apr-04 12:00N 52°25' E 003°36'612.1
2018-Apr-04 11:30N 52°21' E 003°29'612.0
2018-Apr-04 10:59N 52°17' E 003°22'3311.4
2018-Apr-04 08:04N 51°57' E 002°38'511.9
2018-Apr-04 07:40N 51°56' E 002°31'212.1
2018-Apr-04 07:30N 51°56' E 002°27'612.5
2018-Apr-04 07:00N 51°54' E 002°17'612.8
2018-Apr-04 06:30N 51°53' E 002°08'713.5
2018-Apr-04 06:00N 51°50' E 001°58'815.1
2018-Apr-04 05:30N 51°49' E 001°46'612.8
2018-Apr-04 05:00N 51°51' E 001°36'815.6
2018-Apr-04 04:30N 51°44' E 001°30'1020.4
2018-Apr-04 04:00N 51°37' E 001°19'1019.1
2018-Apr-04 03:30N 51°32' E 001°06'917.0
2018-Apr-04 03:00N 51°29' E 000°53'815.9
2018-Apr-04 02:30N 51°30' E 000°40'611.9
2018-Apr-04 02:00N 51°30' E 000°31'1 1.8
2018-Apr-04 01:30N 51°30' E 000°29'0 0.0
2018-Apr-04 01:00N 51°30' E 000°29'0 0.0
2018-Apr-04 00:30N 51°30' E 000°29'0 0.0
2018-Apr-04 00:01N 51°30' E 000°29'0 0.0
2018-Apr-03 23:28N 51°30' E 000°29'0 0.0
2018-Apr-03 22:59N 51°30' E 000°29'0 0.0
2018-Apr-03 22:31N 51°30' E 000°29'0 0.0
2018-Apr-03 22:00N 51°30' E 000°29'0 0.0
2018-Apr-03 21:30N 51°30' E 000°29'0 0.0
2018-Apr-03 21:01N 51°30' E 000°29'0 0.0
2018-Apr-03 20:30N 51°30' E 000°29'0 0.0
2018-Apr-03 20:00N 51°30' E 000°29'0 0.0
2018-Apr-03 19:30N 51°30' E 000°29'0 0.0
2018-Apr-03 18:58N 51°30' E 000°29'0 0.0
2018-Apr-03 18:26N 51°30' E 000°29'0 0.0
2018-Apr-03 18:00N 51°30' E 000°29'0 0.0
2018-Apr-03 17:31N 51°30' E 000°29'0 0.0
2018-Apr-03 17:00N 51°30' E 000°29'0 0.0
2018-Apr-03 16:30N 51°30' E 000°29'0 0.0
2018-Apr-03 16:01N 51°30' E 000°29'  
Track history (hours):
 
Tides and Currents Weather Stations Pressure Air Temp Water Temp Dewpoint Dewpoint Depression Visibility Wind Speed Wind Dir Waves Ship Positions

Cap San Sounio

Last reported at 2018-Apr-13 15:32 UTC. Time now 2018-Apr-19 17:33 UTC.
Position N 36°58' W 028°12'.

Length 333 m; draft 13.1 m.

Type: Cargo ship. MMSI: 564716000.

Date/timePositionNaut miles runAvg speedWind from/ knotsBaromVisibWave heightAir tempDewpointWater temp
2018-Apr-13 15:32N 36°58' W 028°12'015.7
2018-Apr-13 15:30N 36°58' W 028°11'1717.5
2018-Apr-13 14:33N 37°11' W 027°57'118.5
2018-Apr-13 14:30N 37°11' W 027°57'1717.4
2018-Apr-13 13:30N 37°24' W 027°42'918.0
2018-Apr-13 13:00N 37°31' W 027°34'918.0
2018-Apr-13 12:30N 37°38' W 027°27'917.9
2018-Apr-13 12:00N 37°44' W 027°19'917.5
2018-Apr-13 11:30N 37°51' W 027°12'917.7
2018-Apr-13 11:00N 37°57' W 027°04'1818.0
2018-Apr-13 10:00N 38°10' W 026°48'918.1
2018-Apr-13 09:30N 38°16' W 026°39'1617.8
2018-Apr-13 08:35N 38°26' W 026°22'317.0
2018-Apr-13 08:25N 38°27' W 026°20'2216.7
2018-Apr-13 07:05N 38°40' W 025°56'416.2
2018-Apr-13 06:51N 38°43' W 025°52'616.2
2018-Apr-13 06:27N 38°46' W 025°46'1516.8
2018-Apr-13 05:35N 38°55' W 025°30'216.8
2018-Apr-13 05:28N 38°56' W 025°29'  
2018-Apr-10 02:55N 49°42' W 004°09'711.6
2018-Apr-10 02:19N 49°45' W 003°58'411.6
2018-Apr-10 01:57N 49°46' W 003°52'511.5
2018-Apr-10 01:30N 49°48' W 003°45'611.6
2018-Apr-10 01:00N 49°50' W 003°36'711.7
2018-Apr-10 00:24N 49°52' W 003°26'511.8
2018-Apr-10 00:00N 49°54' W 003°19'611.8
2018-Apr-09 23:30N 49°56' W 003°11'612.0
2018-Apr-09 23:00N 49°58' W 003°02'612.2
2018-Apr-09 22:30N 49°60' W 002°53'612.5
2018-Apr-09 22:00N 50°02' W 002°43'612.8
2018-Apr-09 21:30N 50°03' W 002°34'713.1
2018-Apr-09 20:59N 50°05' W 002°24'713.4
2018-Apr-09 20:29N 50°07' W 002°14'713.6
2018-Apr-09 20:00N 50°08' W 002°04'713.4
2018-Apr-09 19:30N 50°10' W 001°54'713.3
2018-Apr-09 19:00N 50°12' W 001°44'713.1
2018-Apr-09 18:30N 50°14' W 001°34'612.7
2018-Apr-09 18:00N 50°15' W 001°24'611.1
2018-Apr-09 17:30N 50°18' W 001°16'611.9
2018-Apr-09 17:00N 50°18' W 001°07'611.9
2018-Apr-09 16:30N 50°20' W 000°58'611.6
2018-Apr-09 16:00N 50°22' W 000°49'611.5
2018-Apr-09 15:28N 50°23' W 000°40'511.3
2018-Apr-09 15:00N 50°24' W 000°32'611.4
2018-Apr-09 14:30N 50°26' W 000°23'611.6
2018-Apr-09 14:00N 50°27' W 000°14'611.8
2018-Apr-09 13:30N 50°29' W 000°06'612.0
2018-Apr-09 13:00N 50°31' E 000°03'612.3
2018-Apr-09 12:30N 50°32' E 000°13'612.6
2018-Apr-09 12:00N 50°34' E 000°22'613.0
2018-Apr-09 11:30N 50°36' E 000°32'713.1
2018-Apr-09 11:00N 50°39' E 000°41'713.3
2018-Apr-09 10:30N 50°42' E 000°50'713.3
2018-Apr-09 10:01N 50°46' E 000°59'713.1
2018-Apr-09 09:30N 50°49' E 001°08'712.9
2018-Apr-09 08:59N 50°53' E 001°16'612.7
2018-Apr-09 08:30N 50°58' E 001°22'612.1
2018-Apr-09 08:00N 51°03' E 001°28'510.8
2018-Apr-09 07:30N 51°07' E 001°34'510.5
2018-Apr-09 07:00N 51°10' E 001°41'611.2
2018-Apr-09 06:30N 51°14' E 001°46'611.3
2018-Apr-09 06:00N 51°19' E 001°51'611.4
2018-Apr-09 05:30N 51°24' E 001°56'511.0
2018-Apr-09 05:00N 51°24' E 002°04'611.8
2018-Apr-09 04:30N 51°22' E 002°13'611.0
2018-Apr-09 04:00N 51°21' E 002°21'612.3
2018-Apr-09 03:30N 51°23' E 002°31'612.6
2018-Apr-09 03:00N 51°23' E 002°41'612.4
2018-Apr-09 02:31N 51°25' E 002°50'815.8
2018-Apr-09 02:00N 51°25' E 003°03'815.6
2018-Apr-09 01:31N 51°25' E 003°15'815.8
2018-Apr-09 01:00N 51°25' E 003°28'611.8
2018-Apr-09 00:30N 51°26' E 003°37'612.9
2018-Apr-09 00:00N 51°22' E 003°45'714.1
2018-Apr-08 23:30N 51°23' E 003°56'4 7.6
2018-Apr-08 23:00N 51°24' E 004°02'611.4
2018-Apr-08 22:30N 51°24' E 004°11'510.0
2018-Apr-08 22:01N 51°20' E 004°16'3 5.0
2018-Apr-08 21:30N 51°18' E 004°16'0 0.0
2018-Apr-08 21:00N 51°18' E 004°16'0 0.0
2018-Apr-08 20:30N 51°18' E 004°16'0 0.0
2018-Apr-08 20:00N 51°18' E 004°16'0 0.0
2018-Apr-08 19:30N 51°18' E 004°16'0 0.0
2018-Apr-08 19:00N 51°18' E 004°16'0 0.0
2018-Apr-08 18:27N 51°18' E 004°16'0 0.0
2018-Apr-08 18:00N 51°17' E 004°16'0 0.0
2018-Apr-08 17:30N 51°18' E 004°16'0 0.0
2018-Apr-08 16:57N 51°18' E 004°16'0 0.0
2018-Apr-08 16:30N 51°18' E 004°16'0 0.0
2018-Apr-08 16:00N 51°18' E 004°16'0 0.0
2018-Apr-08 15:30N 51°18' E 004°16'0 0.0
2018-Apr-08 15:00N 51°18' E 004°16'0 0.0
2018-Apr-08 14:30N 51°18' E 004°16'0 0.0
2018-Apr-08 14:00N 51°18' E 004°16'0 0.0
2018-Apr-08 13:30N 51°18' E 004°16'0 0.0
2018-Apr-08 13:00N 51°18' E 004°16'0 0.0
2018-Apr-08 12:30N 51°18' E 004°16'0 0.0
2018-Apr-08 11:54N 51°18' E 004°16'0 0.0
2018-Apr-08 11:30N 51°18' E 004°16'0 0.0
2018-Apr-08 11:00N 51°18' E 004°16'0 0.0
2018-Apr-08 10:30N 51°18' E 004°16'0 0.0
2018-Apr-08 10:00N 51°18' E 004°16'0 0.0
2018-Apr-08 09:30N 51°18' E 004°16'0 0.0
2018-Apr-08 09:00N 51°17' E 004°16'0 0.0
2018-Apr-08 08:30N 51°18' E 004°16'0 0.0
2018-Apr-08 08:00N 51°18' E 004°16'0 0.0
2018-Apr-08 07:30N 51°18' E 004°16'0 0.0
2018-Apr-08 07:00N 51°18' E 004°16'0 0.0
2018-Apr-08 06:30N 51°18' E 004°16'0 0.0
2018-Apr-08 06:00N 51°18' E 004°16'0 0.0
2018-Apr-08 05:30N 51°18' E 004°16'0 0.0
2018-Apr-08 05:00N 51°18' E 004°16'0 0.0
2018-Apr-08 04:30N 51°18' E 004°16'0 0.0
2018-Apr-08 03:57N 51°18' E 004°16'0 0.0
2018-Apr-08 03:30N 51°18' E 004°16'0 0.0
2018-Apr-08 02:57N 51°18' E 004°16'0 0.0
2018-Apr-08 02:27N 51°18' E 004°16'0 0.0
2018-Apr-08 01:57N 51°18' E 004°16'0 0.0
2018-Apr-08 01:30N 51°18' E 004°16'0 0.0
2018-Apr-08 01:00N 51°18' E 004°16'0 0.0
2018-Apr-08 00:30N 51°18' E 004°16'0 0.0
2018-Apr-08 00:00N 51°18' E 004°16'0 0.0
2018-Apr-07 23:30N 51°18' E 004°16'0 0.0
2018-Apr-07 23:00N 51°18' E 004°16'0 0.0
2018-Apr-07 22:27N 51°18' E 004°16'0 0.0
2018-Apr-07 22:00N 51°18' E 004°16'0 0.0
2018-Apr-07 21:30N 51°18' E 004°16'0 0.0
2018-Apr-07 20:57N 51°17' E 004°16'0 0.0
2018-Apr-07 20:27N 51°18' E 004°16'0 0.0
2018-Apr-07 19:57N 51°18' E 004°16'0 0.0
2018-Apr-07 19:30N 51°18' E 004°16'0 0.0
2018-Apr-07 19:00N 51°18' E 004°16'0 0.0
2018-Apr-07 18:27N 51°18' E 004°16'0 0.0
2018-Apr-07 18:00N 51°18' E 004°16'0 0.0
2018-Apr-07 17:30N 51°18' E 004°16'0 0.0
2018-Apr-07 16:57N 51°18' E 004°16'0 0.0
2018-Apr-07 16:27N 51°18' E 004°16'0 0.0
2018-Apr-07 15:57N 51°18' E 004°16'0 0.3
2018-Apr-07 15:30N 51°18' E 004°16'1 1.7
2018-Apr-07 15:01N 51°18' E 004°16'4 7.6
2018-Apr-07 14:30N 51°22' E 004°13'510.1
2018-Apr-07 14:00N 51°22' E 004°05'611.0
2018-Apr-07 13:30N 51°25' E 003°58'714.5
2018-Apr-07 13:00N 51°21' E 003°50'612.9
2018-Apr-07 12:31N 51°25' E 003°42'510.8
2018-Apr-07 12:00N 51°25' E 003°33'714.1
2018-Apr-07 11:31N 51°24' E 003°22'815.0
2018-Apr-07 11:00N 51°24' E 003°10'714.7
2018-Apr-07 10:30N 51°25' E 002°59'816.4
2018-Apr-07 10:00N 51°32' E 003°06'816.4
2018-Apr-07 09:30N 51°40' E 003°11'714.4
2018-Apr-07 09:00N 51°47' E 003°15'713.5
2018-Apr-07 08:29N 51°53' E 003°17'816.8
2018-Apr-07 08:00N 52°01' E 003°20'917.2
2018-Apr-07 07:30N 52°10' E 003°22'917.0
2018-Apr-07 07:00N 52°18' E 003°26'816.9
2018-Apr-07 06:30N 52°27' E 003°27'816.6
2018-Apr-07 06:00N 52°35' E 003°30'816.6
2018-Apr-07 05:30N 52°42' E 003°36'917.4
2018-Apr-07 05:00N 52°49' E 003°45'918.0
2018-Apr-07 04:29N 52°56' E 003°56'918.7
2018-Apr-07 04:00N 53°01' E 004°07'918.8
2018-Apr-07 03:30N 53°07' E 004°20'918.5
2018-Apr-07 03:00N 53°15' E 004°28'918.7
2018-Apr-07 02:30N 53°24' E 004°34'917.8
2018-Apr-07 02:00N 53°30' E 004°44'918.4
2018-Apr-07 01:30N 53°34' E 004°58'917.8
2018-Apr-07 01:00N 53°37' E 005°12'918.4
2018-Apr-07 00:30N 53°40' E 005°27'918.4
2018-Apr-07 00:00N 53°43' E 005°42'2618.3
2018-Apr-06 22:35N 53°50' E 006°24'5519.4
2018-Apr-06 19:45N 54°01' E 007°56'519.5
2018-Apr-06 19:28N 54°01' E 008°05'714.5
2018-Apr-06 19:00N 54°00' E 008°16'1019.4
2018-Apr-06 18:30N 53°58' E 008°32'816.5
2018-Apr-06 18:01N 53°53' E 008°43'612.3
2018-Apr-06 17:31N 53°50' E 008°52'713.8
2018-Apr-06 17:00N 53°52' E 009°04'611.8
2018-Apr-06 16:30N 53°53' E 009°14'612.1
2018-Apr-06 16:00N 53°49' E 009°22'510.9
2018-Apr-06 15:30N 53°44' E 009°26'5 9.9
2018-Apr-06 15:00N 53°40' E 009°31'5 9.7
2018-Apr-06 14:31N 53°36' E 009°35'510.2
2018-Apr-06 14:00N 53°34' E 009°43'5 9.8
2018-Apr-06 13:30N 53°33' E 009°51'3 6.8
2018-Apr-06 13:00N 53°32' E 009°56'1 2.5
2018-Apr-06 12:30N 53°30' E 009°56'0 0.0
2018-Apr-06 11:58N 53°30' E 009°56'0 0.0
2018-Apr-06 11:28N 53°30' E 009°56'0 0.0
2018-Apr-06 10:58N 53°30' E 009°56'0 0.0
2018-Apr-06 10:30N 53°30' E 009°56'0 0.0
2018-Apr-06 09:58N 53°30' E 009°56'0 0.0
2018-Apr-06 09:26N 53°30' E 009°56'0 0.0
2018-Apr-06 08:58N 53°30' E 009°56'0 0.0
2018-Apr-06 08:28N 53°30' E 009°56'0 0.0
2018-Apr-06 07:59N 53°30' E 009°56'0 0.0
2018-Apr-06 07:28N 53°30' E 009°56'0 0.0
2018-Apr-06 06:58N 53°30' E 009°56'0 0.0
2018-Apr-06 06:28N 53°30' E 009°56'0 0.1
2018-Apr-06 05:58N 53°30' E 009°56'0 0.0
2018-Apr-06 05:28N 53°30' E 009°56'0 0.0
2018-Apr-06 04:58N 53°30' E 009°56'0 0.0
2018-Apr-06 04:28N 53°30' E 009°56'0 0.0
2018-Apr-06 03:58N 53°30' E 009°56'0 0.0
2018-Apr-06 03:28N 53°30' E 009°56'0 0.0
2018-Apr-06 02:58N 53°30' E 009°56'0 0.0
2018-Apr-06 02:28N 53°30' E 009°56'0 0.0
2018-Apr-06 01:58N 53°30' E 009°56'0 0.0
2018-Apr-06 01:28N 53°30' E 009°56'0 0.0
2018-Apr-06 00:58N 53°30' E 009°56'0 0.0
2018-Apr-06 00:28N 53°30' E 009°56'0 0.0
2018-Apr-05 23:58N 53°30' E 009°56'0 0.0
2018-Apr-05 23:28N 53°30' E 009°56'0 0.0
2018-Apr-05 22:58N 53°30' E 009°56'0 0.0
2018-Apr-05 22:28N 53°30' E 009°56'0 0.0
2018-Apr-05 21:58N 53°30' E 009°56'0 0.0
2018-Apr-05 21:28N 53°30' E 009°56'0 0.0
2018-Apr-05 20:58N 53°30' E 009°56'0 0.0
2018-Apr-05 20:28N 53°30' E 009°56'0 0.0
2018-Apr-05 19:58N 53°30' E 009°56'0 0.0
2018-Apr-05 19:28N 53°30' E 009°56'0 0.0
2018-Apr-05 18:58N 53°30' E 009°56'0 0.0
2018-Apr-05 18:28N 53°30' E 009°56'0 0.0
2018-Apr-05 17:58N 53°30' E 009°56'0 0.0
2018-Apr-05 17:28N 53°30' E 009°56'0 0.0
2018-Apr-05 16:58N 53°30' E 009°56'0 0.0
2018-Apr-05 16:28N 53°30' E 009°56'0 0.0
2018-Apr-05 15:58N 53°30' E 009°56'0 0.0
2018-Apr-05 15:28N 53°30' E 009°56'0 0.0
2018-Apr-05 15:00N 53°30' E 009°56'0 0.0
2018-Apr-05 14:28N 53°30' E 009°56'0 0.0
2018-Apr-05 13:58N 53°30' E 009°56'0 0.0
2018-Apr-05 13:28N 53°30' E 009°56'0 0.0
2018-Apr-05 12:58N 53°30' E 009°56'0 0.0
2018-Apr-05 12:30N 53°30' E 009°56'1 1.0
2018-Apr-05 12:00N 53°31' E 009°56'3 5.1
2018-Apr-05 11:30N 53°33' E 009°53'4 7.4
2018-Apr-05 11:00N 53°33' E 009°47'4 8.6
2018-Apr-05 10:30N 53°34' E 009°40'510.4
2018-Apr-05 10:00N 53°37' E 009°33'4 8.8
2018-Apr-05 09:30N 53°41' E 009°30'510.7
2018-Apr-05 09:00N 53°45' E 009°24'511.0
2018-Apr-05 08:30N 53°50' E 009°20'611.4
2018-Apr-05 08:00N 53°53' E 009°11'4 8.5
2018-Apr-05 07:30N 53°52' E 009°04'612.2
2018-Apr-05 07:00N 53°51' E 008°54'611.0
2018-Apr-05 06:30N 53°51' E 008°45'510.7
2018-Apr-05 06:00N 53°56' E 008°40'510.7
2018-Apr-05 05:30N 53°58' E 008°32'714.2
2018-Apr-05 05:00N 53°59' E 008°20'815.6
2018-Apr-05 04:30N 53°59' E 008°07'815.6
2018-Apr-05 04:00N 53°58' E 007°53'611.7
2018-Apr-05 03:30N 53°57' E 007°44'612.6
2018-Apr-05 03:00N 53°55' E 007°33'612.1
2018-Apr-05 02:30N 53°54' E 007°23'611.8
2018-Apr-05 02:00N 53°53' E 007°14'611.9
2018-Apr-05 01:29N 53°51' E 007°03'1911.6
2018-Apr-04 23:53N 53°47' E 006°33'511.4
2018-Apr-04 23:28N 53°46' E 006°25'611.6
2018-Apr-04 22:56N 53°44' E 006°15'1411.6
2018-Apr-04 21:43N 53°39' E 005°53'511.6
2018-Apr-04 21:17N 53°37' E 005°45'511.6
2018-Apr-04 20:50N 53°36' E 005°37'411.7
2018-Apr-04 20:30N 53°34' E 005°30'611.7
2018-Apr-04 20:00N 53°32' E 005°21'611.8
2018-Apr-04 19:30N 53°30' E 005°12'611.9
2018-Apr-04 19:00N 53°28' E 005°02'611.7
2018-Apr-04 18:30N 53°27' E 004°53'611.6
2018-Apr-04 18:00N 53°24' E 004°44'611.9
2018-Apr-04 17:30N 53°19' E 004°38'612.0
2018-Apr-04 17:00N 53°14' E 004°33'612.2
2018-Apr-04 16:30N 53°09' E 004°29'612.2
2018-Apr-04 16:00N 53°03' E 004°24'612.2
2018-Apr-04 15:30N 52°58' E 004°19'612.5
2018-Apr-04 15:00N 52°52' E 004°15'612.2
2018-Apr-04 14:30N 52°47' E 004°09'612.2
2018-Apr-04 14:00N 52°42' E 004°04'611.9
2018-Apr-04 13:30N 52°37' E 003°58'612.0
2018-Apr-04 13:00N 52°33' E 003°51'612.0
2018-Apr-04 12:30N 52°29' E 003°44'611.9
2018-Apr-04 12:00N 52°25' E 003°36'612.1
2018-Apr-04 11:30N 52°21' E 003°29'612.0
2018-Apr-04 10:59N 52°17' E 003°22'3311.4
2018-Apr-04 08:04N 51°57' E 002°38'511.9
2018-Apr-04 07:40N 51°56' E 002°31'212.1
2018-Apr-04 07:30N 51°56' E 002°27'612.5
2018-Apr-04 07:00N 51°54' E 002°17'612.8
2018-Apr-04 06:30N 51°53' E 002°08'713.5
2018-Apr-04 06:00N 51°50' E 001°58'815.1
2018-Apr-04 05:30N 51°49' E 001°46'612.8
2018-Apr-04 05:00N 51°51' E 001°36'815.6
2018-Apr-04 04:30N 51°44' E 001°30'1020.4
2018-Apr-04 04:00N 51°37' E 001°19'1019.1
2018-Apr-04 03:30N 51°32' E 001°06'917.0
2018-Apr-04 03:00N 51°29' E 000°53'815.9
2018-Apr-04 02:30N 51°30' E 000°40'611.9
2018-Apr-04 02:00N 51°30' E 000°31'1 1.8
2018-Apr-04 01:30N 51°30' E 000°29'0 0.0
2018-Apr-04 01:00N 51°30' E 000°29'0 0.0
2018-Apr-04 00:30N 51°30' E 000°29'0 0.0
2018-Apr-04 00:01N 51°30' E 000°29'0 0.0
2018-Apr-03 23:28N 51°30' E 000°29'0 0.0
2018-Apr-03 22:59N 51°30' E 000°29'0 0.0
2018-Apr-03 22:31N 51°30' E 000°29'0 0.0
2018-Apr-03 22:00N 51°30' E 000°29'0 0.0
2018-Apr-03 21:30N 51°30' E 000°29'0 0.0
2018-Apr-03 21:01N 51°30' E 000°29'0 0.0
2018-Apr-03 20:30N 51°30' E 000°29'0 0.0
2018-Apr-03 20:00N 51°30' E 000°29'0 0.0
2018-Apr-03 19:30N 51°30' E 000°29'0 0.0
2018-Apr-03 18:58N 51°30' E 000°29'0 0.0
2018-Apr-03 18:26N 51°30' E 000°29'0 0.0
2018-Apr-03 18:00N 51°30' E 000°29'0 0.0
2018-Apr-03 17:31N 51°30' E 000°29'0 0.0
2018-Apr-03 17:00N 51°30' E 000°29'0 0.0
2018-Apr-03 16:30N 51°30' E 000°29'0 0.0
2018-Apr-03 16:01N 51°30' E 000°29'  

Dump ship's entire track history